sensor_id;sensor_type;location;lat;lon;timestamp;P1;durP1;ratioP1;P2;durP2;ratioP2
20729;SDS011;10526;50.850;12.928;2023-12-20T00:03:50;14.98;;;6.60;;
20729;SDS011;10526;50.850;12.928;2023-12-20T00:08:12;13.32;;;6.13;;
20729;SDS011;10526;50.850;12.928;2023-12-20T00:12:34;14.02;;;5.93;;
20729;SDS011;10526;50.850;12.928;2023-12-20T00:16:57;13.05;;;6.03;;
20729;SDS011;10526;50.850;12.928;2023-12-20T00:21:19;12.73;;;5.85;;
20729;SDS011;10526;50.850;12.928;2023-12-20T00:25:41;11.75;;;5.53;;
20729;SDS011;10526;50.850;12.928;2023-12-20T00:30:03;12.20;;;5.45;;
20729;SDS011;10526;50.850;12.928;2023-12-20T00:34:25;11.95;;;5.28;;
20729;SDS011;10526;50.850;12.928;2023-12-20T00:38:48;12.23;;;5.43;;
20729;SDS011;10526;50.850;12.928;2023-12-20T00:43:11;11.55;;;4.57;;
20729;SDS011;10526;50.850;12.928;2023-12-20T00:47:33;10.80;;;5.18;;
20729;SDS011;10526;50.850;12.928;2023-12-20T00:51:55;9.48;;;4.22;;
20729;SDS011;10526;50.850;12.928;2023-12-20T00:56:17;8.70;;;4.32;;
20729;SDS011;10526;50.850;12.928;2023-12-20T01:00:40;6.53;;;3.28;;
20729;SDS011;10526;50.850;12.928;2023-12-20T01:05:04;5.63;;;2.88;;
20729;SDS011;10526;50.850;12.928;2023-12-20T01:09:28;9.98;;;3.97;;
20729;SDS011;10526;50.850;12.928;2023-12-20T01:13:50;8.18;;;3.45;;
20729;SDS011;10526;50.850;12.928;2023-12-20T01:18:12;7.95;;;3.20;;
20729;SDS011;10526;50.850;12.928;2023-12-20T01:22:35;5.72;;;3.00;;
20729;SDS011;10526;50.850;12.928;2023-12-20T01:26:57;5.35;;;2.90;;
20729;SDS011;10526;50.850;12.928;2023-12-20T01:31:19;7.53;;;2.95;;
20729;SDS011;10526;50.850;12.928;2023-12-20T01:35:41;5.78;;;2.88;;
20729;SDS011;10526;50.850;12.928;2023-12-20T01:40:04;4.97;;;2.83;;
20729;SDS011;10526;50.850;12.928;2023-12-20T01:44:27;4.75;;;2.25;;
20729;SDS011;10526;50.850;12.928;2023-12-20T01:48:49;5.65;;;2.53;;
20729;SDS011;10526;50.850;12.928;2023-12-20T01:53:12;4.63;;;2.28;;
20729;SDS011;10526;50.850;12.928;2023-12-20T01:57:35;4.95;;;2.22;;
20729;SDS011;10526;50.850;12.928;2023-12-20T02:01:57;2.42;;;1.65;;
20729;SDS011;10526;50.850;12.928;2023-12-20T02:06:20;3.08;;;1.98;;
20729;SDS011;10526;50.850;12.928;2023-12-20T02:10:44;3.33;;;1.73;;
20729;SDS011;10526;50.850;12.928;2023-12-20T02:15:07;2.72;;;2.00;;
20729;SDS011;10526;50.850;12.928;2023-12-20T02:19:29;3.63;;;1.90;;
20729;SDS011;10526;50.850;12.928;2023-12-20T02:23:53;3.92;;;1.98;;
20729;SDS011;10526;50.850;12.928;2023-12-20T02:28:15;3.95;;;1.80;;
20729;SDS011;10526;50.850;12.928;2023-12-20T02:32:37;3.78;;;2.00;;
20729;SDS011;10526;50.850;12.928;2023-12-20T02:36:59;2.95;;;1.88;;
20729;SDS011;10526;50.850;12.928;2023-12-20T02:41:22;3.00;;;1.83;;
20729;SDS011;10526;50.850;12.928;2023-12-20T02:45:44;3.50;;;1.98;;
20729;SDS011;10526;50.850;12.928;2023-12-20T02:50:06;3.60;;;1.92;;
20729;SDS011;10526;50.850;12.928;2023-12-20T02:54:28;3.13;;;1.90;;
20729;SDS011;10526;50.850;12.928;2023-12-20T02:58:51;5.43;;;2.30;;
20729;SDS011;10526;50.850;12.928;2023-12-20T03:03:13;2.08;;;1.40;;
20729;SDS011;10526;50.850;12.928;2023-12-20T03:07:36;1.65;;;1.35;;
20729;SDS011;10526;50.850;12.928;2023-12-20T03:11:59;2.13;;;1.50;;
20729;SDS011;10526;50.850;12.928;2023-12-20T03:16:21;3.78;;;1.83;;
20729;SDS011;10526;50.850;12.928;2023-12-20T03:20:46;2.00;;;1.50;;
20729;SDS011;10526;50.850;12.928;2023-12-20T03:25:11;2.60;;;1.60;;
20729;SDS011;10526;50.850;12.928;2023-12-20T03:29:33;20.27;;;8.95;;
20729;SDS011;10526;50.850;12.928;2023-12-20T03:33:55;1.50;;;1.40;;
20729;SDS011;10526;50.850;12.928;2023-12-20T03:38:17;2.03;;;1.63;;
20729;SDS011;10526;50.850;12.928;2023-12-20T03:42:39;2.95;;;1.80;;
20729;SDS011;10526;50.850;12.928;2023-12-20T03:47:02;2.53;;;1.40;;
20729;SDS011;10526;50.850;12.928;2023-12-20T03:51:24;2.47;;;1.58;;
20729;SDS011;10526;50.850;12.928;2023-12-20T03:55:46;3.33;;;2.28;;
20729;SDS011;10526;50.850;12.928;2023-12-20T04:00:08;1.88;;;1.70;;
20729;SDS011;10526;50.850;12.928;2023-12-20T04:04:34;1.00;;;1.00;;
20729;SDS011;10526;50.850;12.928;2023-12-20T04:08:56;1.20;;;1.10;;
20729;SDS011;10526;50.850;12.928;2023-12-20T04:13:18;3.20;;;1.70;;
20729;SDS011;10526;50.850;12.928;2023-12-20T04:17:41;1.90;;;1.60;;
20729;SDS011;10526;50.850;12.928;2023-12-20T04:22:03;2.00;;;1.60;;
20729;SDS011;10526;50.850;12.928;2023-12-20T04:26:25;1.95;;;1.60;;
20729;SDS011;10526;50.850;12.928;2023-12-20T04:30:48;2.20;;;1.50;;
20729;SDS011;10526;50.850;12.928;2023-12-20T04:35:10;1.55;;;1.40;;
20729;SDS011;10526;50.850;12.928;2023-12-20T04:39:32;1.85;;;1.42;;
20729;SDS011;10526;50.850;12.928;2023-12-20T04:43:54;5.97;;;2.97;;
20729;SDS011;10526;50.850;12.928;2023-12-20T04:48:17;2.15;;;1.63;;
20729;SDS011;10526;50.850;12.928;2023-12-20T04:52:39;1.40;;;1.30;;
20729;SDS011;10526;50.850;12.928;2023-12-20T04:57:01;2.97;;;1.55;;
20729;SDS011;10526;50.850;12.928;2023-12-20T05:01:23;1.23;;;1.13;;
20729;SDS011;10526;50.850;12.928;2023-12-20T05:05:47;1.52;;;1.20;;
20729;SDS011;10526;50.850;12.928;2023-12-20T05:10:10;1.92;;;1.52;;
20729;SDS011;10526;50.850;12.928;2023-12-20T05:14:32;2.58;;;1.67;;
20729;SDS011;10526;50.850;12.928;2023-12-20T05:18:54;1.83;;;1.40;;
20729;SDS011;10526;50.850;12.928;2023-12-20T05:23:17;2.53;;;1.48;;
20729;SDS011;10526;50.850;12.928;2023-12-20T05:27:39;4.05;;;1.90;;
20729;SDS011;10526;50.850;12.928;2023-12-20T05:32:01;2.78;;;1.67;;
20729;SDS011;10526;50.850;12.928;2023-12-20T05:36:26;2.88;;;1.70;;
20729;SDS011;10526;50.850;12.928;2023-12-20T05:40:48;3.25;;;1.80;;
20729;SDS011;10526;50.850;12.928;2023-12-20T05:45:10;2.08;;;1.70;;
20729;SDS011;10526;50.850;12.928;2023-12-20T05:49:35;3.75;;;2.10;;
20729;SDS011;10526;50.850;12.928;2023-12-20T05:53:58;3.63;;;2.00;;
20729;SDS011;10526;50.850;12.928;2023-12-20T05:58:20;7.30;;;2.80;;
20729;SDS011;10526;50.850;12.928;2023-12-20T06:02:42;5.18;;;2.75;;
20729;SDS011;10526;50.850;12.928;2023-12-20T06:07:05;3.83;;;2.40;;
20729;SDS011;10526;50.850;12.928;2023-12-20T06:11:27;5.20;;;2.42;;
20729;SDS011;10526;50.850;12.928;2023-12-20T06:15:50;5.22;;;2.78;;
20729;SDS011;10526;50.850;12.928;2023-12-20T06:20:13;7.47;;;3.10;;
20729;SDS011;10526;50.850;12.928;2023-12-20T06:24:35;4.88;;;2.70;;
20729;SDS011;10526;50.850;12.928;2023-12-20T06:28:57;6.95;;;3.17;;
20729;SDS011;10526;50.850;12.928;2023-12-20T06:33:20;6.10;;;3.22;;
20729;SDS011;10526;50.850;12.928;2023-12-20T06:37:43;6.57;;;2.50;;
20729;SDS011;10526;50.850;12.928;2023-12-20T06:42:05;6.80;;;3.33;;
20729;SDS011;10526;50.850;12.928;2023-12-20T06:46:28;6.25;;;3.38;;
20729;SDS011;10526;50.850;12.928;2023-12-20T06:50:50;7.10;;;3.35;;
20729;SDS011;10526;50.850;12.928;2023-12-20T06:55:12;7.18;;;3.45;;
20729;SDS011;10526;50.850;12.928;2023-12-20T06:59:37;8.38;;;3.85;;
20729;SDS011;10526;50.850;12.928;2023-12-20T07:04:04;6.03;;;3.10;;
20729;SDS011;10526;50.850;12.928;2023-12-20T07:08:27;6.53;;;3.60;;
20729;SDS011;10526;50.850;12.928;2023-12-20T07:12:49;9.38;;;3.83;;
20729;SDS011;10526;50.850;12.928;2023-12-20T07:17:12;6.47;;;3.33;;
20729;SDS011;10526;50.850;12.928;2023-12-20T07:21:36;9.38;;;4.03;;
20729;SDS011;10526;50.850;12.928;2023-12-20T07:25:58;8.07;;;3.30;;
20729;SDS011;10526;50.850;12.928;2023-12-20T07:30:20;8.95;;;3.40;;
20729;SDS011;10526;50.850;12.928;2023-12-20T07:34:42;8.45;;;3.63;;
20729;SDS011;10526;50.850;12.928;2023-12-20T07:39:05;10.02;;;3.40;;
20729;SDS011;10526;50.850;12.928;2023-12-20T07:43:27;8.20;;;3.15;;
20729;SDS011;10526;50.850;12.928;2023-12-20T07:47:49;9.98;;;3.40;;
20729;SDS011;10526;50.850;12.928;2023-12-20T07:52:12;5.38;;;2.65;;
20729;SDS011;10526;50.850;12.928;2023-12-20T07:56:34;9.75;;;3.08;;
20729;SDS011;10526;50.850;12.928;2023-12-20T08:00:56;8.85;;;3.50;;
20729;SDS011;10526;50.850;12.928;2023-12-20T08:05:19;7.22;;;2.97;;
20729;SDS011;10526;50.850;12.928;2023-12-20T08:09:41;11.70;;;3.78;;
20729;SDS011;10526;50.850;12.928;2023-12-20T08:14:05;11.82;;;4.07;;
20729;SDS011;10526;50.850;12.928;2023-12-20T08:18:27;10.57;;;3.47;;
20729;SDS011;10526;50.850;12.928;2023-12-20T08:22:49;8.63;;;3.40;;
20729;SDS011;10526;50.850;12.928;2023-12-20T08:27:11;6.18;;;2.80;;
20729;SDS011;10526;50.850;12.928;2023-12-20T08:31:33;6.68;;;2.90;;
20729;SDS011;10526;50.850;12.928;2023-12-20T08:35:56;7.82;;;2.72;;
20729;SDS011;10526;50.850;12.928;2023-12-20T08:40:18;8.30;;;3.05;;
20729;SDS011;10526;50.850;12.928;2023-12-20T08:44:43;5.10;;;2.60;;
20729;SDS011;10526;50.850;12.928;2023-12-20T08:49:06;6.40;;;2.65;;
20729;SDS011;10526;50.850;12.928;2023-12-20T08:53:30;4.40;;;2.47;;
20729;SDS011;10526;50.850;12.928;2023-12-20T08:57:52;4.53;;;2.42;;
20729;SDS011;10526;50.850;12.928;2023-12-20T09:02:17;3.15;;;1.60;;
20729;SDS011;10526;50.850;12.928;2023-12-20T09:06:39;2.88;;;1.83;;
20729;SDS011;10526;50.850;12.928;2023-12-20T09:11:01;4.78;;;1.70;;
20729;SDS011;10526;50.850;12.928;2023-12-20T09:15:24;1.65;;;0.90;;
20729;SDS011;10526;50.850;12.928;2023-12-20T09:19:48;2.30;;;1.13;;
20729;SDS011;10526;50.850;12.928;2023-12-20T09:24:13;2.78;;;1.10;;
20729;SDS011;10526;50.850;12.928;2023-12-20T09:28:36;2.33;;;1.10;;
20729;SDS011;10526;50.850;12.928;2023-12-20T09:32:59;4.40;;;1.17;;
20729;SDS011;10526;50.850;12.928;2023-12-20T09:37:26;5.72;;;1.42;;
20729;SDS011;10526;50.850;12.928;2023-12-20T09:42:02;4.05;;;1.35;;
20729;SDS011;10526;50.850;12.928;2023-12-20T09:46:26;2.42;;;1.17;;
20729;SDS011;10526;50.850;12.928;2023-12-20T09:50:51;5.97;;;1.77;;
20729;SDS011;10526;50.850;12.928;2023-12-20T09:55:14;4.95;;;1.40;;
20729;SDS011;10526;50.850;12.928;2023-12-20T09:59:38;3.15;;;1.80;;
20729;SDS011;10526;50.850;12.928;2023-12-20T10:04:00;4.35;;;2.00;;
20729;SDS011;10526;50.850;12.928;2023-12-20T10:08:31;4.20;;;2.40;;
20729;SDS011;10526;50.850;12.928;2023-12-20T10:13:06;5.30;;;2.33;;
20729;SDS011;10526;50.850;12.928;2023-12-20T10:17:32;4.70;;;2.25;;
20729;SDS011;10526;50.850;12.928;2023-12-20T10:21:54;8.07;;;2.38;;
20729;SDS011;10526;50.850;12.928;2023-12-20T10:26:23;7.90;;;2.83;;
20729;SDS011;10526;50.850;12.928;2023-12-20T10:30:49;7.32;;;2.63;;
20729;SDS011;10526;50.850;12.928;2023-12-20T10:35:11;6.88;;;2.08;;
20729;SDS011;10526;50.850;12.928;2023-12-20T10:39:34;6.60;;;1.42;;
20729;SDS011;10526;50.850;12.928;2023-12-20T10:44:00;6.25;;;1.75;;
20729;SDS011;10526;50.850;12.928;2023-12-20T10:48:24;5.30;;;1.67;;
20729;SDS011;10526;50.850;12.928;2023-12-20T10:52:51;3.90;;;1.33;;
20729;SDS011;10526;50.850;12.928;2023-12-20T10:57:18;4.20;;;1.45;;
20729;SDS011;10526;50.850;12.928;2023-12-20T11:01:42;2.88;;;1.50;;
20729;SDS011;10526;50.850;12.928;2023-12-20T11:11:18;4.07;;;1.20;;
20729;SDS011;10526;50.850;12.928;2023-12-20T11:16:11;6.05;;;2.10;;
20729;SDS011;10526;50.850;12.928;2023-12-20T11:20:37;7.35;;;2.20;;
20729;SDS011;10526;50.850;12.928;2023-12-20T11:25:06;7.10;;;1.90;;
20729;SDS011;10526;50.850;12.928;2023-12-20T11:29:32;4.80;;;2.10;;
20729;SDS011;10526;50.850;12.928;2023-12-20T11:34:10;7.72;;;2.05;;
20729;SDS011;10526;50.850;12.928;2023-12-20T11:38:39;9.25;;;2.15;;
20729;SDS011;10526;50.850;12.928;2023-12-20T11:43:39;10.00;;;2.20;;
20729;SDS011;10526;50.850;12.928;2023-12-20T11:48:03;5.18;;;1.92;;
20729;SDS011;10526;50.850;12.928;2023-12-20T11:52:27;5.25;;;2.15;;
20729;SDS011;10526;50.850;12.928;2023-12-20T11:56:49;7.97;;;2.00;;
20729;SDS011;10526;50.850;12.928;2023-12-20T12:01:11;7.03;;;1.92;;
20729;SDS011;10526;50.850;12.928;2023-12-20T12:05:34;4.32;;;1.85;;
20729;SDS011;10526;50.850;12.928;2023-12-20T12:09:57;8.52;;;2.00;;
20729;SDS011;10526;50.850;12.928;2023-12-20T12:14:19;8.38;;;2.33;;
20729;SDS011;10526;50.850;12.928;2023-12-20T12:18:42;7.88;;;2.00;;
20729;SDS011;10526;50.850;12.928;2023-12-20T12:23:05;6.32;;;2.15;;
20729;SDS011;10526;50.850;12.928;2023-12-20T12:27:27;7.07;;;2.50;;
20729;SDS011;10526;50.850;12.928;2023-12-20T12:31:50;8.65;;;2.10;;
20729;SDS011;10526;50.850;12.928;2023-12-20T12:36:12;8.13;;;2.25;;
20729;SDS011;10526;50.850;12.928;2023-12-20T12:40:38;5.50;;;1.95;;
20729;SDS011;10526;50.850;12.928;2023-12-20T12:45:00;6.95;;;1.88;;
20729;SDS011;10526;50.850;12.928;2023-12-20T12:49:22;5.30;;;2.03;;
20729;SDS011;10526;50.850;12.928;2023-12-20T12:53:44;4.15;;;1.58;;
20729;SDS011;10526;50.850;12.928;2023-12-20T12:58:06;6.55;;;2.00;;
20729;SDS011;10526;50.850;12.928;2023-12-20T13:02:28;9.93;;;2.45;;
20729;SDS011;10526;50.850;12.928;2023-12-20T13:06:50;7.13;;;1.90;;
20729;SDS011;10526;50.850;12.928;2023-12-20T13:11:13;5.68;;;1.90;;
20729;SDS011;10526;50.850;12.928;2023-12-20T13:15:35;4.68;;;1.67;;
20729;SDS011;10526;50.850;12.928;2023-12-20T13:19:57;6.82;;;2.03;;
20729;SDS011;10526;50.850;12.928;2023-12-20T13:24:20;6.85;;;2.00;;
20729;SDS011;10526;50.850;12.928;2023-12-20T13:28:42;8.73;;;1.95;;
20729;SDS011;10526;50.850;12.928;2023-12-20T13:33:04;4.32;;;1.60;;
20729;SDS011;10526;50.850;12.928;2023-12-20T13:37:27;6.43;;;1.80;;
20729;SDS011;10526;50.850;12.928;2023-12-20T13:41:49;5.30;;;1.85;;
20729;SDS011;10526;50.850;12.928;2023-12-20T13:46:11;5.10;;;2.15;;
20729;SDS011;10526;50.850;12.928;2023-12-20T13:50:35;4.85;;;1.55;;
20729;SDS011;10526;50.850;12.928;2023-12-20T13:54:57;5.40;;;1.85;;
20729;SDS011;10526;50.850;12.928;2023-12-20T13:59:19;4.40;;;1.73;;
20729;SDS011;10526;50.850;12.928;2023-12-20T14:03:41;3.35;;;1.88;;
20729;SDS011;10526;50.850;12.928;2023-12-20T14:08:03;7.20;;;1.90;;
20729;SDS011;10526;50.850;12.928;2023-12-20T14:12:26;7.32;;;1.70;;
20729;SDS011;10526;50.850;12.928;2023-12-20T14:16:48;5.45;;;1.77;;
20729;SDS011;10526;50.850;12.928;2023-12-20T14:21:10;3.15;;;1.52;;
20729;SDS011;10526;50.850;12.928;2023-12-20T14:25:32;5.38;;;2.08;;
20729;SDS011;10526;50.850;12.928;2023-12-20T14:30:09;7.13;;;2.60;;
20729;SDS011;10526;50.850;12.928;2023-12-20T14:34:32;4.03;;;1.45;;
20729;SDS011;10526;50.850;12.928;2023-12-20T14:38:54;4.85;;;1.73;;
20729;SDS011;10526;50.850;12.928;2023-12-20T14:43:17;7.40;;;2.25;;
20729;SDS011;10526;50.850;12.928;2023-12-20T14:47:39;6.55;;;2.28;;
20729;SDS011;10526;50.850;12.928;2023-12-20T14:52:01;11.25;;;3.28;;
20729;SDS011;10526;50.850;12.928;2023-12-20T14:56:24;5.70;;;1.88;;
20729;SDS011;10526;50.850;12.928;2023-12-20T15:00:47;7.35;;;2.13;;
20729;SDS011;10526;50.850;12.928;2023-12-20T15:05:09;3.25;;;1.70;;
20729;SDS011;10526;50.850;12.928;2023-12-20T15:09:31;8.07;;;2.40;;
20729;SDS011;10526;50.850;12.928;2023-12-20T15:13:53;5.63;;;2.15;;
20729;SDS011;10526;50.850;12.928;2023-12-20T15:18:21;4.45;;;2.20;;
20729;SDS011;10526;50.850;12.928;2023-12-20T15:22:43;6.70;;;2.10;;
20729;SDS011;10526;50.850;12.928;2023-12-20T15:27:07;5.95;;;2.28;;
20729;SDS011;10526;50.850;12.928;2023-12-20T15:31:30;6.68;;;2.63;;
20729;SDS011;10526;50.850;12.928;2023-12-20T15:35:54;5.47;;;2.20;;
20729;SDS011;10526;50.850;12.928;2023-12-20T15:40:16;3.95;;;1.75;;
20729;SDS011;10526;50.850;12.928;2023-12-20T15:44:38;6.00;;;2.30;;
20729;SDS011;10526;50.850;12.928;2023-12-20T15:49:00;6.80;;;2.20;;
20729;SDS011;10526;50.850;12.928;2023-12-20T15:53:22;8.05;;;2.10;;
20729;SDS011;10526;50.850;12.928;2023-12-20T15:57:44;11.10;;;3.38;;
20729;SDS011;10526;50.850;12.928;2023-12-20T16:02:15;4.95;;;1.73;;
20729;SDS011;10526;50.850;12.928;2023-12-20T16:06:38;3.95;;;1.90;;
20729;SDS011;10526;50.850;12.928;2023-12-20T16:11:01;5.85;;;1.70;;
20729;SDS011;10526;50.850;12.928;2023-12-20T16:15:23;4.78;;;1.88;;
20729;SDS011;10526;50.850;12.928;2023-12-20T16:19:45;6.20;;;2.20;;
20729;SDS011;10526;50.850;12.928;2023-12-20T16:24:07;5.07;;;1.67;;
20729;SDS011;10526;50.850;12.928;2023-12-20T16:28:30;4.35;;;2.10;;
20729;SDS011;10526;50.850;12.928;2023-12-20T16:32:52;6.72;;;1.80;;
20729;SDS011;10526;50.850;12.928;2023-12-20T16:37:15;5.03;;;1.95;;
20729;SDS011;10526;50.850;12.928;2023-12-20T16:41:37;5.30;;;2.10;;
20729;SDS011;10526;50.850;12.928;2023-12-20T16:46:02;6.90;;;2.03;;
20729;SDS011;10526;50.850;12.928;2023-12-20T16:50:27;8.25;;;2.35;;
20729;SDS011;10526;50.850;12.928;2023-12-20T16:54:49;2.65;;;1.85;;
20729;SDS011;10526;50.850;12.928;2023-12-20T16:59:11;7.22;;;2.65;;
20729;SDS011;10526;50.850;12.928;2023-12-20T17:03:33;8.90;;;2.38;;
20729;SDS011;10526;50.850;12.928;2023-12-20T17:07:55;7.07;;;2.05;;
20729;SDS011;10526;50.850;12.928;2023-12-20T17:12:21;5.43;;;2.20;;
20729;SDS011;10526;50.850;12.928;2023-12-20T17:16:44;6.85;;;2.17;;
20729;SDS011;10526;50.850;12.928;2023-12-20T17:21:06;6.97;;;2.45;;
20729;SDS011;10526;50.850;12.928;2023-12-20T17:25:29;10.95;;;3.00;;
20729;SDS011;10526;50.850;12.928;2023-12-20T17:29:52;12.02;;;2.25;;
20729;SDS011;10526;50.850;12.928;2023-12-20T17:34:14;8.35;;;2.40;;
20729;SDS011;10526;50.850;12.928;2023-12-20T17:38:36;7.00;;;2.20;;
20729;SDS011;10526;50.850;12.928;2023-12-20T17:43:00;11.25;;;2.53;;
20729;SDS011;10526;50.850;12.928;2023-12-20T17:47:25;6.53;;;2.47;;
20729;SDS011;10526;50.850;12.928;2023-12-20T17:51:47;3.92;;;1.67;;
20729;SDS011;10526;50.850;12.928;2023-12-20T17:56:10;8.52;;;2.50;;
20729;SDS011;10526;50.850;12.928;2023-12-20T18:00:35;8.05;;;1.80;;
20729;SDS011;10526;50.850;12.928;2023-12-20T18:04:57;5.18;;;2.13;;
20729;SDS011;10526;50.850;12.928;2023-12-20T18:09:19;6.75;;;1.98;;
20729;SDS011;10526;50.850;12.928;2023-12-20T18:13:42;6.63;;;2.10;;
20729;SDS011;10526;50.850;12.928;2023-12-20T18:18:04;6.70;;;2.65;;
20729;SDS011;10526;50.850;12.928;2023-12-20T18:22:30;4.90;;;2.53;;
20729;SDS011;10526;50.850;12.928;2023-12-20T18:26:52;6.30;;;1.83;;
20729;SDS011;10526;50.850;12.928;2023-12-20T18:31:14;3.88;;;1.77;;
20729;SDS011;10526;50.850;12.928;2023-12-20T18:35:36;4.20;;;1.95;;
20729;SDS011;10526;50.850;12.928;2023-12-20T18:40:02;6.82;;;1.85;;
20729;SDS011;10526;50.850;12.928;2023-12-20T18:44:24;2.85;;;1.80;;
20729;SDS011;10526;50.850;12.928;2023-12-20T18:48:46;4.55;;;2.05;;
20729;SDS011;10526;50.850;12.928;2023-12-20T18:53:09;3.90;;;1.60;;
20729;SDS011;10526;50.850;12.928;2023-12-20T18:57:31;6.32;;;1.90;;
20729;SDS011;10526;50.850;12.928;2023-12-20T19:01:53;6.85;;;2.35;;
20729;SDS011;10526;50.850;12.928;2023-12-20T19:06:17;3.47;;;1.88;;
20729;SDS011;10526;50.850;12.928;2023-12-20T19:10:39;5.70;;;2.20;;
20729;SDS011;10526;50.850;12.928;2023-12-20T19:15:01;4.45;;;1.67;;
20729;SDS011;10526;50.850;12.928;2023-12-20T19:19:23;6.95;;;1.98;;
20729;SDS011;10526;50.850;12.928;2023-12-20T19:23:46;4.78;;;2.00;;
20729;SDS011;10526;50.850;12.928;2023-12-20T19:28:08;2.95;;;1.40;;
20729;SDS011;10526;50.850;12.928;2023-12-20T19:32:30;2.92;;;1.75;;
20729;SDS011;10526;50.850;12.928;2023-12-20T19:36:52;3.45;;;1.77;;
20729;SDS011;10526;50.850;12.928;2023-12-20T19:41:15;3.83;;;1.70;;
20729;SDS011;10526;50.850;12.928;2023-12-20T19:45:38;2.50;;;1.48;;
20729;SDS011;10526;50.850;12.928;2023-12-20T19:50:00;4.05;;;2.05;;
20729;SDS011;10526;50.850;12.928;2023-12-20T19:54:23;2.47;;;1.70;;
20729;SDS011;10526;50.850;12.928;2023-12-20T19:58:45;2.88;;;1.70;;
20729;SDS011;10526;50.850;12.928;2023-12-20T20:03:07;3.70;;;1.67;;
20729;SDS011;10526;50.850;12.928;2023-12-20T20:07:29;3.30;;;1.80;;
20729;SDS011;10526;50.850;12.928;2023-12-20T20:11:53;2.38;;;1.55;;
20729;SDS011;10526;50.850;12.928;2023-12-20T20:16:16;3.88;;;1.65;;
20729;SDS011;10526;50.850;12.928;2023-12-20T20:20:38;2.90;;;1.48;;
20729;SDS011;10526;50.850;12.928;2023-12-20T20:25:00;3.70;;;1.98;;
20729;SDS011;10526;50.850;12.928;2023-12-20T20:29:22;4.60;;;2.00;;
20729;SDS011;10526;50.850;12.928;2023-12-20T20:33:44;3.60;;;1.42;;
20729;SDS011;10526;50.850;12.928;2023-12-20T20:38:06;3.00;;;1.70;;
20729;SDS011;10526;50.850;12.928;2023-12-20T20:42:29;1.27;;;1.15;;
20729;SDS011;10526;50.850;12.928;2023-12-20T20:46:51;3.30;;;1.63;;
20729;SDS011;10526;50.850;12.928;2023-12-20T20:51:13;2.03;;;1.40;;
20729;SDS011;10526;50.850;12.928;2023-12-20T20:55:35;3.40;;;1.33;;
20729;SDS011;10526;50.850;12.928;2023-12-20T21:00:00;1.77;;;1.60;;
20729;SDS011;10526;50.850;12.928;2023-12-20T21:04:22;3.40;;;1.45;;
20729;SDS011;10526;50.850;12.928;2023-12-20T21:08:44;3.38;;;1.70;;
20729;SDS011;10526;50.850;12.928;2023-12-20T21:13:06;4.57;;;1.50;;
20729;SDS011;10526;50.850;12.928;2023-12-20T21:17:29;4.10;;;1.63;;
20729;SDS011;10526;50.850;12.928;2023-12-20T21:21:51;3.47;;;1.73;;
20729;SDS011;10526;50.850;12.928;2023-12-20T21:26:13;2.65;;;1.60;;
20729;SDS011;10526;50.850;12.928;2023-12-20T21:30:36;1.25;;;1.15;;
20729;SDS011;10526;50.850;12.928;2023-12-20T21:34:59;3.08;;;1.60;;
20729;SDS011;10526;50.850;12.928;2023-12-20T21:39:21;1.73;;;1.40;;
20729;SDS011;10526;50.850;12.928;2023-12-20T21:43:45;2.30;;;1.50;;
20729;SDS011;10526;50.850;12.928;2023-12-20T21:48:07;2.90;;;1.50;;
20729;SDS011;10526;50.850;12.928;2023-12-20T21:52:30;2.95;;;1.25;;
20729;SDS011;10526;50.850;12.928;2023-12-20T21:56:52;3.22;;;1.30;;
20729;SDS011;10526;50.850;12.928;2023-12-20T22:01:16;2.08;;;1.33;;
20729;SDS011;10526;50.850;12.928;2023-12-20T22:05:39;3.22;;;1.40;;
20729;SDS011;10526;50.850;12.928;2023-12-20T22:10:04;2.78;;;1.40;;
20729;SDS011;10526;50.850;12.928;2023-12-20T22:14:27;2.05;;;1.65;;
20729;SDS011;10526;50.850;12.928;2023-12-20T22:18:50;5.07;;;1.27;;
20729;SDS011;10526;50.850;12.928;2023-12-20T22:23:12;1.73;;;1.13;;
20729;SDS011;10526;50.850;12.928;2023-12-20T22:27:35;5.53;;;1.95;;
20729;SDS011;10526;50.850;12.928;2023-12-20T22:31:58;1.88;;;1.50;;
20729;SDS011;10526;50.850;12.928;2023-12-20T22:36:20;1.50;;;1.20;;
20729;SDS011;10526;50.850;12.928;2023-12-20T22:40:42;2.50;;;1.30;;
20729;SDS011;10526;50.850;12.928;2023-12-20T22:45:04;3.50;;;1.73;;
20729;SDS011;10526;50.850;12.928;2023-12-20T22:49:27;3.30;;;1.85;;
20729;SDS011;10526;50.850;12.928;2023-12-20T22:53:49;5.60;;;2.00;;
20729;SDS011;10526;50.850;12.928;2023-12-20T22:58:13;4.05;;;2.10;;
20729;SDS011;10526;50.850;12.928;2023-12-20T23:02:36;3.10;;;1.70;;
20729;SDS011;10526;50.850;12.928;2023-12-20T23:06:59;5.00;;;1.83;;
20729;SDS011;10526;50.850;12.928;2023-12-20T23:11:21;4.30;;;2.00;;
20729;SDS011;10526;50.850;12.928;2023-12-20T23:15:44;4.65;;;2.15;;
20729;SDS011;10526;50.850;12.928;2023-12-20T23:20:06;5.60;;;1.90;;
20729;SDS011;10526;50.850;12.928;2023-12-20T23:24:29;4.32;;;1.48;;
20729;SDS011;10526;50.850;12.928;2023-12-20T23:28:51;2.70;;;1.70;;
20729;SDS011;10526;50.850;12.928;2023-12-20T23:33:14;2.67;;;1.80;;
20729;SDS011;10526;50.850;12.928;2023-12-20T23:37:37;3.35;;;1.80;;
20729;SDS011;10526;50.850;12.928;2023-12-20T23:42:00;3.60;;;1.65;;
20729;SDS011;10526;50.850;12.928;2023-12-20T23:46:22;6.65;;;1.90;;
20729;SDS011;10526;50.850;12.928;2023-12-20T23:50:44;1.65;;;1.35;;
20729;SDS011;10526;50.850;12.928;2023-12-20T23:55:06;1.70;;;1.48;;
20729;SDS011;10526;50.850;12.928;2023-12-20T23:59:31;1.50;;;1.27;;
